Revolution — WDD2974 — position and weather

sailwx.info

Track history (hours):
 
Tides and Currents Weather Stations Pressure Air Temp Water Temp Dewpoint Dewpoint Depression Visibility Wind Speed Wind Dir Waves Ship Positions

Revolution

Owner: AMNAV Maritime Corporation, Oakland, CA. More information available from US FCC via Universal Licensing System and Coast Guard Vessel Documentation Center.

Last reported at 2018-Jun-24 20:30 UTC. Time now 2018-Jun-24 20:27 UTC.
Position N 37°49' W 122°19'.

Length 24 m; draft 4.9 m.

Type: Tug. MMSI: 367122220.

Date/timePositionNaut miles runAvg speedWind from/ knotsBaromVisibWave heightAir tempDewpointWater temp
2018-Jun-24 20:30N 37°49' W 122°19'0 0.0
2018-Jun-24 20:01N 37°49' W 122°19'0 0.0
2018-Jun-24 19:30N 37°49' W 122°19'0 0.0
2018-Jun-24 18:59N 37°49' W 122°19'0 0.0
2018-Jun-24 18:30N 37°49' W 122°19'0 0.0
2018-Jun-24 18:01N 37°49' W 122°19'0 0.0
2018-Jun-24 17:30N 37°49' W 122°19'0 0.0
2018-Jun-24 17:01N 37°49' W 122°19'0 0.0
2018-Jun-24 16:31N 37°49' W 122°19'0 0.0
2018-Jun-24 16:00N 37°49' W 122°19'0 0.0
2018-Jun-24 15:30N 37°49' W 122°19'0 0.0
2018-Jun-24 15:01N 37°49' W 122°19'2 3.5
2018-Jun-24 14:30N 37°48' W 122°20'1 2.4
2018-Jun-24 14:00N 37°48' W 122°19'2 4.3
2018-Jun-24 13:30N 37°48' W 122°21'1 1.5
2018-Jun-24 13:00N 37°48' W 122°21'0 0.0
2018-Jun-24 12:30N 37°48' W 122°21'0 0.0
2018-Jun-24 12:00N 37°48' W 122°21'0 0.0
2018-Jun-24 11:30N 37°48' W 122°21'0 0.0
2018-Jun-24 11:00N 37°48' W 122°21'0 0.0
2018-Jun-24 10:30N 37°48' W 122°21'0 0.0
2018-Jun-24 10:00N 37°48' W 122°21'0 0.0
2018-Jun-24 09:30N 37°48' W 122°21'1 1.6
2018-Jun-24 09:00N 37°49' W 122°20'1 2.0
2018-Jun-24 08:30N 37°49' W 122°19'0 0.0
2018-Jun-24 08:00N 37°49' W 122°19'0 0.0
2018-Jun-24 07:30N 37°49' W 122°19'0 0.0
2018-Jun-24 07:00N 37°49' W 122°19'0 0.0
2018-Jun-24 06:30N 37°49' W 122°19'0 0.0
2018-Jun-24 06:00N 37°49' W 122°19'0 0.0
2018-Jun-24 05:30N 37°49' W 122°19'0 0.0
2018-Jun-24 05:00N 37°49' W 122°19'0 0.0
2018-Jun-24 04:29N 37°49' W 122°19'0 0.0
2018-Jun-24 04:00N 37°49' W 122°19'2 3.4
2018-Jun-24 03:30N 37°48' W 122°20'1 2.6
2018-Jun-24 03:00N 37°48' W 122°19'0 0.1
2018-Jun-24 02:31N 37°48' W 122°19'0 0.1
2018-Jun-24 02:00N 37°48' W 122°18'0 0.0
2018-Jun-24 01:30N 37°48' W 122°18'0 0.0
2018-Jun-24 01:00N 37°48' W 122°18'0 0.0
2018-Jun-24 00:30N 37°48' W 122°18'0 0.0
2018-Jun-24 00:00N 37°48' W 122°18'0 0.0
2018-Jun-23 23:30N 37°48' W 122°18'0 0.5
2018-Jun-23 23:00N 37°48' W 122°19'1 2.5
2018-Jun-23 22:31N 37°48' W 122°17'1 2.7
2018-Jun-23 22:00N 37°48' W 122°19'3 5.6
2018-Jun-23 21:31N 37°48' W 122°22'3 6.1
2018-Jun-23 21:00N 37°49' W 122°19'0 0.0
2018-Jun-23 20:30N 37°49' W 122°19'0 0.0
2018-Jun-23 20:00N 37°49' W 122°19'0 0.0
2018-Jun-23 19:30N 37°49' W 122°19'0 0.0
2018-Jun-23 19:00N 37°49' W 122°19'0 0.0
2018-Jun-23 18:31N 37°49' W 122°19'0 0.0
2018-Jun-23 18:00N 37°49' W 122°19'0 0.0
2018-Jun-23 17:29N 37°49' W 122°19'0 0.0
2018-Jun-23 17:00N 37°49' W 122°19'0 0.0
2018-Jun-23 16:30N 37°49' W 122°19'0 0.0
2018-Jun-23 16:00N 37°49' W 122°19'0 0.0
2018-Jun-23 15:30N 37°49' W 122°19'0 0.0
2018-Jun-23 15:00N 37°49' W 122°19'0 0.0
2018-Jun-23 14:30N 37°49' W 122°19'0 0.0
2018-Jun-23 14:00N 37°49' W 122°19'0 0.0
2018-Jun-23 13:30N 37°49' W 122°19'0 0.0
2018-Jun-23 13:01N 37°49' W 122°19'0 0.0
2018-Jun-23 12:30N 37°49' W 122°19'0 0.0
2018-Jun-23 12:00N 37°49' W 122°19'0 0.0
2018-Jun-23 11:30N 37°49' W 122°19'0 0.0
2018-Jun-23 11:00N 37°49' W 122°19'0 0.4
2018-Jun-23 10:30N 37°49' W 122°19'1 1.6
2018-Jun-23 10:00N 37°49' W 122°20'0 0.2
2018-Jun-23 09:30N 37°49' W 122°20'1 1.8
2018-Jun-23 09:00N 37°49' W 122°19'0 0.0
2018-Jun-23 08:30N 37°49' W 122°19'0 0.0
2018-Jun-23 08:00N 37°49' W 122°19'0 0.0
2018-Jun-23 07:30N 37°49' W 122°19'0 0.0
2018-Jun-23 07:00N 37°49' W 122°19'0 0.0
2018-Jun-23 06:30N 37°49' W 122°19'0 0.0
2018-Jun-23 06:00N 37°49' W 122°19'0 0.0
2018-Jun-23 05:30N 37°49' W 122°19'0 0.0
2018-Jun-23 05:00N 37°49' W 122°19'0 0.0
2018-Jun-23 04:30N 37°49' W 122°19'0 0.0
2018-Jun-23 04:00N 37°49' W 122°19'0 0.0
2018-Jun-23 03:30N 37°49' W 122°19'0 0.0
2018-Jun-23 03:00N 37°49' W 122°19'0 0.0
2018-Jun-23 02:30N 37°49' W 122°19'0 0.0
2018-Jun-23 02:00N 37°49' W 122°19'0 0.0
2018-Jun-23 01:30N 37°49' W 122°19'0 0.0
2018-Jun-23 01:01N 37°49' W 122°19'0 0.0
2018-Jun-23 00:30N 37°49' W 122°19'0 0.0
2018-Jun-23 00:00N 37°49' W 122°19'0 0.0
2018-Jun-22 23:30N 37°49' W 122°19'2 3.6
2018-Jun-22 23:01N 37°48' W 122°20'2 3.7
2018-Jun-22 22:31N 37°48' W 122°18'0 0.8
2018-Jun-22 22:01N 37°48' W 122°19'3 6.5
2018-Jun-22 21:30N 37°48' W 122°23'3 6.3
2018-Jun-22 21:00N 37°49' W 122°19'0 0.1
2018-Jun-22 20:30N 37°49' W 122°19'0 0.0
2018-Jun-22 20:00N 37°49' W 122°19'0 0.0
2018-Jun-22 19:30N 37°49' W 122°19'0 0.0
2018-Jun-22 19:00N 37°49' W 122°19'0 0.0
2018-Jun-22 18:30N 37°49' W 122°19'0 0.0
2018-Jun-22 17:57N 37°49' W 122°19'0 0.0
2018-Jun-22 17:30N 37°49' W 122°19'0 0.1
2018-Jun-22 17:00N 37°49' W 122°19'0 0.0
2018-Jun-22 16:30N 37°49' W 122°19'0 0.0
2018-Jun-22 16:00N 37°49' W 122°19'0 0.0
2018-Jun-22 15:31N 37°49' W 122°19'0 0.0
2018-Jun-22 15:00N 37°49' W 122°19'0 0.0
2018-Jun-22 14:30N 37°49' W 122°19'0 0.0
2018-Jun-22 14:00N 37°49' W 122°19'0 0.0
2018-Jun-22 13:30N 37°49' W 122°19'0 0.0
2018-Jun-22 13:00N 37°49' W 122°19'0 0.0
2018-Jun-22 12:28N 37°49' W 122°19'0 0.0
2018-Jun-22 12:00N 37°49' W 122°19'0 0.0
2018-Jun-22 11:29N 37°49' W 122°19'0 0.0
2018-Jun-22 11:00N 37°49' W 122°19'0 0.0
2018-Jun-22 10:30N 37°49' W 122°19'0 0.0
2018-Jun-22 09:59N 37°49' W 122°19'0 0.0
2018-Jun-22 09:30N 37°49' W 122°19'0 0.0
2018-Jun-22 09:00N 37°49' W 122°19'0 0.0
2018-Jun-22 08:30N 37°49' W 122°19'0 0.0
2018-Jun-22 08:00N 37°49' W 122°19'0 0.0
2018-Jun-22 07:30N 37°49' W 122°19'0 0.0
2018-Jun-22 07:00N 37°49' W 122°19'0 0.0
2018-Jun-22 06:30N 37°49' W 122°19'0 0.0
2018-Jun-22 06:00N 37°49' W 122°19'2 3.1
2018-Jun-22 05:31N 37°48' W 122°19'0 0.3
2018-Jun-22 05:00N 37°48' W 122°19'2 3.3
2018-Jun-22 04:31N 37°48' W 122°17'1 1.7
2018-Jun-22 04:01N 37°48' W 122°18'2 3.2
2018-Jun-22 03:30N 37°48' W 122°20'2 4.8
2018-Jun-22 03:00N 37°46' W 122°22'3 5.2
2018-Jun-22 02:30N 37°48' W 122°21'1 2.1
2018-Jun-22 02:00N 37°48' W 122°19'2 3.3
2018-Jun-22 01:30N 37°48' W 122°17'1 2.3
2018-Jun-22 01:01N 37°48' W 122°19'0 1.0
2018-Jun-22 00:30N 37°48' W 122°19'0 0.0
2018-Jun-22 00:00N 37°48' W 122°19'1 3.0
2018-Jun-21 23:30N 37°49' W 122°19'0 0.1
2018-Jun-21 23:00N 37°49' W 122°19'0 0.0
2018-Jun-21 22:29N 37°49' W 122°19'0 0.0
2018-Jun-21 22:00N 37°49' W 122°19'0 0.0
2018-Jun-21 21:30N 37°49' W 122°19'0 0.0
2018-Jun-21 21:00N 37°49' W 122°19'0 0.0
2018-Jun-21 20:30N 37°49' W 122°19'0 0.0
2018-Jun-21 20:00N 37°49' W 122°19'0 0.0
2018-Jun-21 19:30N 37°49' W 122°19'0 0.0
2018-Jun-21 19:00N 37°49' W 122°19'0 0.0
2018-Jun-21 18:29N 37°49' W 122°19'0 0.0
2018-Jun-21 18:00N 37°49' W 122°19'0 0.0
2018-Jun-21 17:31N 37°49' W 122°19'0 0.0
2018-Jun-21 17:00N 37°49' W 122°19'0 0.0
2018-Jun-21 16:31N 37°49' W 122°19'0 0.0
2018-Jun-21 16:00N 37°49' W 122°19'0 0.0
2018-Jun-21 15:29N 37°49' W 122°19'0 0.0
2018-Jun-21 15:00N 37°49' W 122°19'0 0.0
2018-Jun-21 14:29N 37°49' W 122°19'0 0.0
2018-Jun-21 13:59N 37°49' W 122°19'0 0.0
2018-Jun-21 13:30N 37°49' W 122°19'0 0.0
2018-Jun-21 13:00N 37°49' W 122°19'0 0.0
2018-Jun-21 12:30N 37°49' W 122°19'1 2.2
2018-Jun-21 12:00N 37°49' W 122°20'0 0.4
2018-Jun-21 11:31N 37°49' W 122°20'1 2.1
2018-Jun-21 11:00N 37°48' W 122°21'1 1.1
2018-Jun-21 10:30N 37°48' W 122°21'0 0.0
2018-Jun-21 10:00N 37°48' W 122°21'1 1.6
2018-Jun-21 09:31N 37°49' W 122°20'0 0.2
2018-Jun-21 09:00N 37°49' W 122°20'1 2.0
2018-Jun-21 08:30N 37°49' W 122°19'0 0.1
2018-Jun-21 08:00N 37°49' W 122°19'0 0.0
2018-Jun-21 07:30N 37°49' W 122°19'0 0.0
2018-Jun-21 07:00N 37°49' W 122°19'0 0.0
2018-Jun-21 06:30N 37°49' W 122°19'0 0.0
2018-Jun-21 06:00N 37°49' W 122°19'0 0.0
2018-Jun-21 05:30N 37°49' W 122°19'0 0.0
2018-Jun-21 05:00N 37°49' W 122°19'0 0.0
2018-Jun-21 04:30N 37°49' W 122°19'0 0.0
2018-Jun-21 04:00N 37°49' W 122°19'0 0.0
2018-Jun-21 03:30N 37°49' W 122°19'0 0.0
2018-Jun-21 03:00N 37°49' W 122°19'0 0.0
2018-Jun-21 02:30N 37°49' W 122°19'2 3.3
2018-Jun-21 02:00N 37°48' W 122°20'2 4.0
2018-Jun-21 01:31N 37°48' W 122°17'1 2.7
2018-Jun-21 01:00N 37°48' W 122°19'0 0.3
2018-Jun-21 00:30N 37°48' W 122°19'0 0.0
2018-Jun-20 23:56N 37°48' W 122°19'1 3.1
2018-Jun-20 23:31N 37°48' W 122°21'0 0.7
2018-Jun-20 23:01N 37°49' W 122°20'1 1.1
2018-Jun-20 22:30N 37°49' W 122°20'2 4.2
2018-Jun-20 22:00N 37°48' W 122°22'1 2.7
2018-Jun-20 21:30N 37°48' W 122°21'0 0.0
2018-Jun-20 21:00N 37°48' W 122°21'0 0.0
2018-Jun-20 20:30N 37°48' W 122°21'1 2.1
2018-Jun-20 20:00N 37°47' W 122°21'1 1.5
2018-Jun-20 19:30N 37°47' W 122°21'3 6.5
2018-Jun-20 19:01N 37°49' W 122°23'1 1.5
2018-Jun-20 18:30N 37°49' W 122°23'3 6.5
2018-Jun-20 18:00N 37°49' W 122°19'0 0.0
2018-Jun-20 17:30N 37°49' W 122°19'0 0.0
2018-Jun-20 17:00N 37°49' W 122°19'0 0.0
2018-Jun-20 16:30N 37°49' W 122°19'0 0.1
2018-Jun-20 16:00N 37°49' W 122°19'0 0.0
2018-Jun-20 15:29N 37°49' W 122°19'0 0.0
2018-Jun-20 14:59N 37°49' W 122°19'0 0.0
2018-Jun-20 14:30N 37°49' W 122°19'1 2.1
2018-Jun-20 14:00N 37°49' W 122°20'0 0.0
2018-Jun-20 13:31N 37°49' W 122°20'2 3.4
2018-Jun-20 13:00N 37°48' W 122°22'1 1.1
2018-Jun-20 12:30N 37°48' W 122°21'1 1.0
2018-Jun-20 12:00N 37°48' W 122°21'0 0.0
2018-Jun-20 11:30N 37°48' W 122°21'1 2.3
2018-Jun-20 11:00N 37°48' W 122°19'0 0.2
2018-Jun-20 10:31N 37°48' W 122°19'2 3.5
2018-Jun-20 10:00N 37°48' W 122°21'2 4.9
2018-Jun-20 09:30N 37°49' W 122°19'0 0.0
2018-Jun-20 08:55N 37°49' W 122°19'0 0.0
2018-Jun-20 08:30N 37°49' W 122°19'0 0.0
2018-Jun-20 08:00N 37°49' W 122°19'0 0.0
2018-Jun-20 07:30N 37°49' W 122°19'0 0.0
2018-Jun-20 07:00N 37°49' W 122°19'0 0.0
2018-Jun-20 06:30N 37°49' W 122°19'0 0.0
2018-Jun-20 05:58N 37°49' W 122°19'0 0.0
2018-Jun-20 05:30N 37°49' W 122°19'0 0.0
2018-Jun-20 05:00N 37°49' W 122°19'0 0.0
2018-Jun-20 04:30N 37°49' W 122°19'0 0.0
2018-Jun-20 04:00N 37°49' W 122°19'0 0.0
2018-Jun-20 03:30N 37°49' W 122°19'0 0.0
2018-Jun-20 03:00N 37°49' W 122°19'0 0.0
2018-Jun-20 02:30N 37°49' W 122°19'0 0.0
2018-Jun-20 02:00N 37°49' W 122°19'0 0.0
2018-Jun-20 01:30N 37°49' W 122°19'0 0.0
2018-Jun-20 01:00N 37°49' W 122°19'0 0.0
2018-Jun-20 00:30N 37°49' W 122°19'1 2.0
2018-Jun-20 00:00N 37°49' W 122°20'2 3.2
2018-Jun-19 23:30N 37°48' W 122°21'2 4.3
2018-Jun-19 23:00N 37°49' W 122°19'0 0.6
2018-Jun-19 22:30N 37°49' W 122°19'0 0.0
2018-Jun-19 22:00N 37°49' W 122°19'0 0.0
2018-Jun-19 21:29N 37°49' W 122°19'0 0.0
2018-Jun-19 21:00N 37°49' W 122°19'0 0.0
2018-Jun-19 20:30N 37°49' W 122°19'0 0.0
2018-Jun-19 20:00N 37°49' W 122°19'0 0.0
2018-Jun-19 19:30N 37°49' W 122°19'0 0.0
2018-Jun-19 19:00N 37°49' W 122°19'0 0.0
2018-Jun-19 18:30N 37°49' W 122°19'0 0.0
2018-Jun-19 18:00N 37°49' W 122°19'0 0.0
2018-Jun-19 17:30N 37°49' W 122°19'0 0.0
2018-Jun-19 17:00N 37°49' W 122°19'0 0.0
2018-Jun-19 16:30N 37°49' W 122°19'0 0.0
2018-Jun-19 16:00N 37°49' W 122°19'0 0.0
2018-Jun-19 15:30N 37°49' W 122°19'0 0.0
2018-Jun-19 14:52N 37°49' W 122°19'0 0.0
2018-Jun-19 14:30N 37°49' W 122°19'0 0.0
2018-Jun-19 14:00N 37°49' W 122°19'0 0.0
2018-Jun-19 13:31N 37°49' W 122°19'0 0.0
2018-Jun-19 13:00N 37°49' W 122°19'0 0.0
2018-Jun-19 12:29N 37°49' W 122°19'0 0.0
2018-Jun-19 12:00N 37°49' W 122°19'0 0.0
2018-Jun-19 11:30N 37°49' W 122°19'0 0.0
2018-Jun-19 11:00N 37°49' W 122°19'1 1.8
2018-Jun-19 10:30N 37°49' W 122°20'0 0.4
2018-Jun-19 10:00N 37°49' W 122°20'2 3.4
2018-Jun-19 09:30N 37°48' W 122°18'0 0.2
2018-Jun-19 09:00N 37°48' W 122°18'0 0.0
2018-Jun-19 08:30N 37°48' W 122°18'2 4.3
2018-Jun-19 08:00N 37°49' W 122°20'1 2.8
2018-Jun-19 07:30N 37°49' W 122°19'0 0.0
2018-Jun-19 07:00N 37°49' W 122°19'0 0.0
2018-Jun-19 06:30N 37°49' W 122°19'0 0.0
2018-Jun-19 06:00N 37°49' W 122°19'0 0.0
2018-Jun-19 05:30N 37°49' W 122°19'0 0.0
2018-Jun-19 05:00N 37°49' W 122°19'0 0.0
2018-Jun-19 04:30N 37°49' W 122°19'0 0.0
2018-Jun-19 04:00N 37°49' W 122°19'0 0.0
2018-Jun-19 03:30N 37°49' W 122°19'0 0.0
2018-Jun-19 03:00N 37°49' W 122°19'0 0.0
2018-Jun-19 02:30N 37°49' W 122°19'0 0.0
2018-Jun-19 02:00N 37°49' W 122°19'0 0.0
2018-Jun-19 01:30N 37°49' W 122°19'3 5.9
2018-Jun-19 01:00N 37°47' W 122°21'2 4.8
2018-Jun-19 00:30N 37°45' W 122°23'0 0.2
2018-Jun-19 00:00N 37°45' W 122°23'1 1.3
2018-Jun-18 23:30N 37°46' W 122°22'3 6.4
2018-Jun-18 23:01N 37°48' W 122°19'1 2.5
2018-Jun-18 22:30N 37°49' W 122°20'2 3.1
2018-Jun-18 22:00N 37°49' W 122°19'0 0.0
2018-Jun-18 21:30N 37°49' W 122°19'0 0.1
2018-Jun-18 21:00N 37°49' W 122°19'2 3.1
2018-Jun-18 20:30N 37°48' W 122°19'1 1.6
2018-Jun-18 20:01N 37°48' W 122°18'0 0.2
2018-Jun-18 19:30N 37°48' W 122°18'3 5.2
2018-Jun-18 19:00N 37°48' W 122°21'1 2.1
2018-Jun-18 18:30N 37°49' W 122°20'0 0.0
2018-Jun-18 18:00N 37°49' W 122°20'0 0.0
2018-Jun-18 17:30N 37°49' W 122°20'0 0.0
2018-Jun-18 17:00N 37°49' W 122°20'0 0.0
2018-Jun-18 16:30N 37°49' W 122°20'0 0.0
2018-Jun-18 16:00N 37°49' W 122°20'0 0.0
2018-Jun-18 15:30N 37°49' W 122°20'0 0.0
2018-Jun-18 15:00N 37°49' W 122°20'0 0.0
2018-Jun-18 14:30N 37°49' W 122°20'3 6.3
2018-Jun-18 14:00N 37°46' W 122°23'0 0.8
2018-Jun-18 13:30N 37°46' W 122°23'0 0.0
2018-Jun-18 13:00N 37°46' W 122°23'0 0.0
2018-Jun-18 12:30N 37°46' W 122°23'0 0.0
2018-Jun-18 12:00N 37°46' W 122°23'0 0.3
2018-Jun-18 11:28N 37°46' W 122°23'1 1.9
2018-Jun-18 11:00N 37°46' W 122°22'1 1.9
2018-Jun-18 10:30N 37°47' W 122°21'2 4.2
2018-Jun-18 10:00N 37°49' W 122°20'1 2.0
2018-Jun-18 09:30N 37°49' W 122°19'0 0.0
2018-Jun-18 08:59N 37°49' W 122°19'0 0.0
2018-Jun-18 08:30N 37°49' W 122°19'0 0.0
2018-Jun-18 08:00N 37°49' W 122°19'0 0.0
2018-Jun-18 07:30N 37°49' W 122°19'0 0.0
2018-Jun-18 07:00N 37°49' W 122°19'0 0.0
2018-Jun-18 06:28N 37°49' W 122°19'0 0.0
2018-Jun-18 05:59N 37°49' W 122°19'0 0.0
2018-Jun-18 05:30N 37°49' W 122°19'0 0.0
2018-Jun-18 05:00N 37°49' W 122°19'0 0.0
2018-Jun-18 04:30N 37°49' W 122°19'0 0.0
2018-Jun-18 04:00N 37°49' W 122°19'0 0.0
2018-Jun-18 03:30N 37°49' W 122°19'2 3.3
2018-Jun-18 03:00N 37°48' W 122°19'1 2.6
2018-Jun-18 02:31N 37°48' W 122°17'1 3.0
2018-Jun-18 02:00N 37°48' W 122°19'0 0.2
2018-Jun-18 01:30N 37°48' W 122°19'0 0.1
2018-Jun-18 01:01N 37°48' W 122°19'1 1.3
2018-Jun-18 00:30N 37°48' W 122°20'2 3.4
2018-Jun-18 00:00N 37°49' W 122°19'0 0.0
2018-Jun-17 23:30N 37°49' W 122°19'0 0.0
2018-Jun-17 23:01N 37°49' W 122°19'0 0.0
2018-Jun-17 22:30N 37°49' W 122°19'0 0.0
2018-Jun-17 21:59N 37°49' W 122°19'0 0.0
2018-Jun-17 21:30N 37°49' W 122°19'0 0.0
2018-Jun-17 21:00N 37°49' W 122°19'0 0.0
2018-Jun-17 20:30N 37°49' W 122°19'0 0.0
2018-Jun-17 20:00N 37°49' W 122°19'0 0.0
2018-Jun-17 19:31N 37°49' W 122°19'0 0.0
2018-Jun-17 18:59N 37°49' W 122°19'0 0.0
2018-Jun-17 18:30N 37°49' W 122°19'0 0.0
2018-Jun-17 18:00N 37°49' W 122°19'0 0.0
2018-Jun-17 17:30N 37°49' W 122°19'0 0.0
2018-Jun-17 16:50N 37°49' W 122°19'0 0.0
2018-Jun-17 16:30N 37°49' W 122°19'2 3.2
2018-Jun-17 16:00N 37°48' W 122°20'1 1.6
2018-Jun-17 15:30N 37°49' W 122°19'2 3.2
2018-Jun-17 15:00N 37°48' W 122°21'1 1.3
2018-Jun-17 14:30N 37°48' W 122°21'0 0.0
2018-Jun-17 14:00N 37°48' W 122°21'0 0.0
2018-Jun-17 13:30N 37°48' W 122°21'0 0.0
2018-Jun-17 13:00N 37°48' W 122°21'1 1.4
2018-Jun-17 12:30N 37°49' W 122°20'0 0.2
2018-Jun-17 12:00N 37°49' W 122°20'0 0.1
2018-Jun-17 11:30N 37°49' W 122°20'2 3.6
2018-Jun-17 11:00N 37°48' W 122°18'0 0.0
2018-Jun-17 10:31N 37°48' W 122°18'1 2.0
2018-Jun-17 10:00N 37°48' W 122°19'1 2.0
2018-Jun-17 09:30N 37°49' W 122°20'1 2.2
2018-Jun-17 09:00N 37°49' W 122°19'0 0.0
2018-Jun-17 08:30N 37°49' W 122°19'0 0.0
2018-Jun-17 08:00N 37°49' W 122°19'0 0.0
2018-Jun-17 07:30N 37°49' W 122°19'0 0.0
2018-Jun-17 07:01N 37°49' W 122°19'0 0.0
2018-Jun-17 06:30N 37°49' W 122°19'0 0.0
2018-Jun-17 06:00N 37°49' W 122°19'0 0.0
2018-Jun-17 05:30N 37°49' W 122°19'0 0.0
2018-Jun-17 05:00N 37°49' W 122°19'0 0.0
2018-Jun-17 04:23N 37°49' W 122°19'0 0.0
2018-Jun-17 04:00N 37°49' W 122°19'0 0.0
2018-Jun-17 03:31N 37°49' W 122°19'0 0.0
2018-Jun-17 03:00N 37°49' W 122°19'2 3.6
2018-Jun-17 02:30N 37°48' W 122°21'1 2.8
2018-Jun-17 02:00N 37°48' W 122°19'0 0.5
2018-Jun-17 01:30N 37°48' W 122°19'0 0.0
2018-Jun-17 01:00N 37°48' W 122°19'0 0.0
2018-Jun-17 00:30N 37°48' W 122°19'0 0.0
2018-Jun-16 23:59N 37°48' W 122°19'0 0.0
2018-Jun-16 23:30N 37°48' W 122°19'0 0.9
2018-Jun-16 23:00N 37°48' W 122°19'0 0.1
2018-Jun-16 22:30N 37°48' W 122°19'2 3.8
2018-Jun-16 22:00N 37°48' W 122°22'2 3.6
2018-Jun-16 21:31N 37°48' W 122°19'0 0.1
2018-Jun-16 21:00N 37°48' W 122°19'1 2.0
2018-Jun-16 20:31N 37°48' W 122°20'2 3.6
2018-Jun-16 20:00N 37°49' W 122°19'0 0.0
2018-Jun-16 19:30N 37°49' W 122°19'0 0.0
2018-Jun-16 19:00N 37°49' W 122°19'0 0.0
2018-Jun-16 18:29N 37°49' W 122°19'0 0.0
2018-Jun-16 18:00N 37°49' W 122°19'0 0.0
2018-Jun-16 17:30N 37°49' W 122°19'0 0.0
2018-Jun-16 17:00N 37°49' W 122°19'0 0.0
2018-Jun-16 16:30N 37°49' W 122°19'0 0.0
2018-Jun-16 16:00N 37°49' W 122°19'0 0.0
2018-Jun-16 15:30N 37°49' W 122°19'1 2.2
2018-Jun-16 15:01N 37°49' W 122°20'0 0.1
2018-Jun-16 14:31N 37°49' W 122°20'2 3.8
2018-Jun-16 14:00N 37°48' W 122°22'0 0.5
2018-Jun-16 13:30N 37°48' W 122°22'1 2.6
2018-Jun-16 13:00N 37°48' W 122°21'0 0.0
2018-Jun-16 12:30N 37°48' W 122°21'1 2.3
2018-Jun-16 11:59N 37°48' W 122°19'1 1.4
2018-Jun-16 11:30N 37°48' W 122°18'0 0.1
2018-Jun-16 11:00N 37°48' W 122°18'3 6.2
2018-Jun-16 10:30N 37°48' W 122°22'1 2.8
2018-Jun-16 10:00N 37°49' W 122°20'1 1.5
2018-Jun-16 09:30N 37°49' W 122°20'0 0.3
2018-Jun-16 09:00N 37°49' W 122°20'1 1.8
2018-Jun-16 08:30N 37°49' W 122°19'0 0.2
2018-Jun-16 08:00N 37°49' W 122°19'0 0.0
2018-Jun-16 07:30N 37°49' W 122°19'0 0.0
2018-Jun-16 07:00N 37°49' W 122°19'0 0.0
2018-Jun-16 06:30N 37°49' W 122°19'0 0.0
2018-Jun-16 06:00N 37°49' W 122°19'0 0.0
2018-Jun-16 05:30N 37°49' W 122°19'0 0.0
2018-Jun-16 05:00N 37°49' W 122°19'0 0.0
2018-Jun-16 04:30N 37°49' W 122°19'0 0.0
2018-Jun-16 04:00N 37°49' W 122°19'0 0.0
2018-Jun-16 03:30N 37°49' W 122°19'0 0.0
2018-Jun-16 03:01N 37°49' W 122°19'3 5.3
2018-Jun-16 02:30N 37°48' W 122°22'3 5.2
2018-Jun-16 02:01N 37°48' W 122°18'0 0.2
2018-Jun-16 01:31N 37°48' W 122°18'0 0.1
2018-Jun-16 01:00N 37°48' W 122°18'0 0.0
2018-Jun-16 00:30N 37°48' W 122°18'0 0.0
2018-Jun-16 00:00N 37°48' W 122°18'0 0.3
2018-Jun-15 23:30N 37°48' W 122°19'1 2.2
2018-Jun-15 23:00N 37°48' W 122°17'1 2.1
2018-Jun-15 22:30N 37°48' W 122°19'3 5.3
2018-Jun-15 22:00N 37°48' W 122°22'1 2.1
2018-Jun-15 21:30N 37°48' W 122°21'0 0.0
2018-Jun-15 21:01N 37°48' W 122°21'1 1.6
2018-Jun-15 20:30N 37°48' W 122°20'1 2.9
2018-Jun-15 20:00N 37°48' W 122°18'0 0.1
2018-Jun-15 19:30N 37°48' W 122°18'2 4.5
2018-Jun-15 19:00N 37°48' W 122°21'2 3.7
2018-Jun-15 18:30N 37°49' W 122°19'0 0.0
2018-Jun-15 18:00N 37°49' W 122°19'0 0.0
2018-Jun-15 17:30N 37°49' W 122°19'0 0.0
2018-Jun-15 16:59N 37°49' W 122°19'0 0.0
2018-Jun-15 16:31N 37°49' W 122°19'0 0.0
2018-Jun-15 16:00N 37°49' W 122°19'0 0.0
2018-Jun-15 15:28N 37°49' W 122°19'0 0.0
2018-Jun-15 15:00N 37°49' W 122°19'0 0.0
2018-Jun-15 14:30N 37°49' W 122°19'2 3.6
2018-Jun-15 14:00N 37°48' W 122°21'1 2.4
2018-Jun-15 13:30N 37°48' W 122°19'1 1.8
2018-Jun-15 13:00N 37°48' W 122°20'2 3.2
2018-Jun-15 12:30N 37°48' W 122°22'3 5.9
2018-Jun-15 12:00N 37°49' W 122°19'0 0.1
2018-Jun-15 11:30N 37°49' W 122°19'0 0.0
2018-Jun-15 11:00N 37°49' W 122°19'0 0.0
2018-Jun-15 10:30N 37°49' W 122°19'0 0.0
2018-Jun-15 10:00N 37°49' W 122°19'0 0.0
2018-Jun-15 09:30N 37°49' W 122°19'0 0.0
2018-Jun-15 09:00N 37°49' W 122°19'0 0.0
2018-Jun-15 08:30N 37°49' W 122°19'0 0.0
2018-Jun-15 08:00N 37°49' W 122°19'0 0.0
2018-Jun-15 07:30N 37°49' W 122°19'0 0.0
2018-Jun-15 07:00N 37°49' W 122°19'0 0.0
2018-Jun-15 06:29N 37°49' W 122°19'0 0.0
2018-Jun-15 06:00N 37°49' W 122°19'0 0.0
2018-Jun-15 05:29N 37°49' W 122°19'0 0.0
2018-Jun-15 05:00N 37°49' W 122°19'0 0.0
2018-Jun-15 04:30N 37°49' W 122°19'0 0.0
2018-Jun-15 04:00N 37°49' W 122°19'0 0.0
2018-Jun-15 03:28N 37°49' W 122°19'0 0.0
2018-Jun-15 03:00N 37°49' W 122°19'0 0.0
2018-Jun-15 02:29N 37°49' W 122°19'0 0.0
2018-Jun-15 02:01N 37°49' W 122°19'0 0.0
2018-Jun-15 01:31N 37°49' W 122°19'0 0.0
2018-Jun-15 01:00N 37°49' W 122°19'0 0.0
2018-Jun-15 00:30N 37°49' W 122°19'0 0.0
2018-Jun-15 00:00N 37°49' W 122°19'0 0.0
2018-Jun-14 23:30N 37°49' W 122°19'0 0.0
2018-Jun-14 23:00N 37°49' W 122°19'0 0.0
2018-Jun-14 22:30N 37°49' W 122°19'0 0.0
2018-Jun-14 22:00N 37°49' W 122°19'0 0.0
2018-Jun-14 21:30N 37°49' W 122°19'0 0.0
2018-Jun-14 21:00N 37°49' W 122°19'0 0.0
2018-Jun-14 20:29N 37°49' W 122°19'  
Track history (hours):
 
Tides and Currents Weather Stations Pressure Air Temp Water Temp Dewpoint Dewpoint Depression Visibility Wind Speed Wind Dir Waves Ship Positions

Revolution

Owner: AMNAV Maritime Corporation, Oakland, CA. More information available from US FCC via Universal Licensing System and Coast Guard Vessel Documentation Center.

Last reported at 2018-Jun-24 20:30 UTC. Time now 2018-Jun-24 20:27 UTC.
Position N 37°49' W 122°19'.

Length 24 m; draft 4.9 m.

Type: Tug. MMSI: 367122220.

Date/timePositionNaut miles runAvg speedWind from/ knotsBaromVisibWave heightAir tempDewpointWater temp
2018-Jun-24 20:30N 37°49' W 122°19'0 0.0
2018-Jun-24 20:01N 37°49' W 122°19'0 0.0
2018-Jun-24 19:30N 37°49' W 122°19'0 0.0
2018-Jun-24 18:59N 37°49' W 122°19'0 0.0
2018-Jun-24 18:30N 37°49' W 122°19'0 0.0
2018-Jun-24 18:01N 37°49' W 122°19'0 0.0
2018-Jun-24 17:30N 37°49' W 122°19'0 0.0
2018-Jun-24 17:01N 37°49' W 122°19'0 0.0
2018-Jun-24 16:31N 37°49' W 122°19'0 0.0
2018-Jun-24 16:00N 37°49' W 122°19'0 0.0
2018-Jun-24 15:30N 37°49' W 122°19'0 0.0
2018-Jun-24 15:01N 37°49' W 122°19'2 3.5
2018-Jun-24 14:30N 37°48' W 122°20'1 2.4
2018-Jun-24 14:00N 37°48' W 122°19'2 4.3
2018-Jun-24 13:30N 37°48' W 122°21'1 1.5
2018-Jun-24 13:00N 37°48' W 122°21'0 0.0
2018-Jun-24 12:30N 37°48' W 122°21'0 0.0
2018-Jun-24 12:00N 37°48' W 122°21'0 0.0
2018-Jun-24 11:30N 37°48' W 122°21'0 0.0
2018-Jun-24 11:00N 37°48' W 122°21'0 0.0
2018-Jun-24 10:30N 37°48' W 122°21'0 0.0
2018-Jun-24 10:00N 37°48' W 122°21'0 0.0
2018-Jun-24 09:30N 37°48' W 122°21'1 1.6
2018-Jun-24 09:00N 37°49' W 122°20'1 2.0
2018-Jun-24 08:30N 37°49' W 122°19'0 0.0
2018-Jun-24 08:00N 37°49' W 122°19'0 0.0
2018-Jun-24 07:30N 37°49' W 122°19'0 0.0
2018-Jun-24 07:00N 37°49' W 122°19'0 0.0
2018-Jun-24 06:30N 37°49' W 122°19'0 0.0
2018-Jun-24 06:00N 37°49' W 122°19'0 0.0
2018-Jun-24 05:30N 37°49' W 122°19'0 0.0
2018-Jun-24 05:00N 37°49' W 122°19'0 0.0
2018-Jun-24 04:29N 37°49' W 122°19'0 0.0
2018-Jun-24 04:00N 37°49' W 122°19'2 3.4
2018-Jun-24 03:30N 37°48' W 122°20'1 2.6
2018-Jun-24 03:00N 37°48' W 122°19'0 0.1
2018-Jun-24 02:31N 37°48' W 122°19'0 0.1
2018-Jun-24 02:00N 37°48' W 122°18'0 0.0
2018-Jun-24 01:30N 37°48' W 122°18'0 0.0
2018-Jun-24 01:00N 37°48' W 122°18'0 0.0
2018-Jun-24 00:30N 37°48' W 122°18'0 0.0
2018-Jun-24 00:00N 37°48' W 122°18'0 0.0
2018-Jun-23 23:30N 37°48' W 122°18'0 0.5
2018-Jun-23 23:00N 37°48' W 122°19'1 2.5
2018-Jun-23 22:31N 37°48' W 122°17'1 2.7
2018-Jun-23 22:00N 37°48' W 122°19'3 5.6
2018-Jun-23 21:31N 37°48' W 122°22'3 6.1
2018-Jun-23 21:00N 37°49' W 122°19'0 0.0
2018-Jun-23 20:30N 37°49' W 122°19'0 0.0
2018-Jun-23 20:00N 37°49' W 122°19'0 0.0
2018-Jun-23 19:30N 37°49' W 122°19'0 0.0
2018-Jun-23 19:00N 37°49' W 122°19'0 0.0
2018-Jun-23 18:31N 37°49' W 122°19'0 0.0
2018-Jun-23 18:00N 37°49' W 122°19'0 0.0
2018-Jun-23 17:29N 37°49' W 122°19'0 0.0
2018-Jun-23 17:00N 37°49' W 122°19'0 0.0
2018-Jun-23 16:30N 37°49' W 122°19'0 0.0
2018-Jun-23 16:00N 37°49' W 122°19'0 0.0
2018-Jun-23 15:30N 37°49' W 122°19'0 0.0
2018-Jun-23 15:00N 37°49' W 122°19'0 0.0
2018-Jun-23 14:30N 37°49' W 122°19'0 0.0
2018-Jun-23 14:00N 37°49' W 122°19'0 0.0
2018-Jun-23 13:30N 37°49' W 122°19'0 0.0
2018-Jun-23 13:01N 37°49' W 122°19'0 0.0
2018-Jun-23 12:30N 37°49' W 122°19'0 0.0
2018-Jun-23 12:00N 37°49' W 122°19'0 0.0
2018-Jun-23 11:30N 37°49' W 122°19'0 0.0
2018-Jun-23 11:00N 37°49' W 122°19'0 0.4
2018-Jun-23 10:30N 37°49' W 122°19'1 1.6
2018-Jun-23 10:00N 37°49' W 122°20'0 0.2
2018-Jun-23 09:30N 37°49' W 122°20'1 1.8
2018-Jun-23 09:00N 37°49' W 122°19'0 0.0
2018-Jun-23 08:30N 37°49' W 122°19'0 0.0
2018-Jun-23 08:00N 37°49' W 122°19'0 0.0
2018-Jun-23 07:30N 37°49' W 122°19'0 0.0
2018-Jun-23 07:00N 37°49' W 122°19'0 0.0
2018-Jun-23 06:30N 37°49' W 122°19'0 0.0
2018-Jun-23 06:00N 37°49' W 122°19'0 0.0
2018-Jun-23 05:30N 37°49' W 122°19'0 0.0
2018-Jun-23 05:00N 37°49' W 122°19'0 0.0
2018-Jun-23 04:30N 37°49' W 122°19'0 0.0
2018-Jun-23 04:00N 37°49' W 122°19'0 0.0
2018-Jun-23 03:30N 37°49' W 122°19'0 0.0
2018-Jun-23 03:00N 37°49' W 122°19'0 0.0
2018-Jun-23 02:30N 37°49' W 122°19'0 0.0
2018-Jun-23 02:00N 37°49' W 122°19'0 0.0
2018-Jun-23 01:30N 37°49' W 122°19'0 0.0
2018-Jun-23 01:01N 37°49' W 122°19'0 0.0
2018-Jun-23 00:30N 37°49' W 122°19'0 0.0
2018-Jun-23 00:00N 37°49' W 122°19'0 0.0
2018-Jun-22 23:30N 37°49' W 122°19'2 3.6
2018-Jun-22 23:01N 37°48' W 122°20'2 3.7
2018-Jun-22 22:31N 37°48' W 122°18'0 0.8
2018-Jun-22 22:01N 37°48' W 122°19'3 6.5
2018-Jun-22 21:30N 37°48' W 122°23'3 6.3
2018-Jun-22 21:00N 37°49' W 122°19'0 0.1
2018-Jun-22 20:30N 37°49' W 122°19'0 0.0
2018-Jun-22 20:00N 37°49' W 122°19'0 0.0
2018-Jun-22 19:30N 37°49' W 122°19'0 0.0
2018-Jun-22 19:00N 37°49' W 122°19'0 0.0
2018-Jun-22 18:30N 37°49' W 122°19'0 0.0
2018-Jun-22 17:57N 37°49' W 122°19'0 0.0
2018-Jun-22 17:30N 37°49' W 122°19'0 0.1
2018-Jun-22 17:00N 37°49' W 122°19'0 0.0
2018-Jun-22 16:30N 37°49' W 122°19'0 0.0
2018-Jun-22 16:00N 37°49' W 122°19'0 0.0
2018-Jun-22 15:31N 37°49' W 122°19'0 0.0
2018-Jun-22 15:00N 37°49' W 122°19'0 0.0
2018-Jun-22 14:30N 37°49' W 122°19'0 0.0
2018-Jun-22 14:00N 37°49' W 122°19'0 0.0
2018-Jun-22 13:30N 37°49' W 122°19'0 0.0
2018-Jun-22 13:00N 37°49' W 122°19'0 0.0
2018-Jun-22 12:28N 37°49' W 122°19'0 0.0
2018-Jun-22 12:00N 37°49' W 122°19'0 0.0
2018-Jun-22 11:29N 37°49' W 122°19'0 0.0
2018-Jun-22 11:00N 37°49' W 122°19'0 0.0
2018-Jun-22 10:30N 37°49' W 122°19'0 0.0
2018-Jun-22 09:59N 37°49' W 122°19'0 0.0
2018-Jun-22 09:30N 37°49' W 122°19'0 0.0
2018-Jun-22 09:00N 37°49' W 122°19'0 0.0
2018-Jun-22 08:30N 37°49' W 122°19'0 0.0
2018-Jun-22 08:00N 37°49' W 122°19'0 0.0
2018-Jun-22 07:30N 37°49' W 122°19'0 0.0
2018-Jun-22 07:00N 37°49' W 122°19'0 0.0
2018-Jun-22 06:30N 37°49' W 122°19'0 0.0
2018-Jun-22 06:00N 37°49' W 122°19'2 3.1
2018-Jun-22 05:31N 37°48' W 122°19'0 0.3
2018-Jun-22 05:00N 37°48' W 122°19'2 3.3
2018-Jun-22 04:31N 37°48' W 122°17'1 1.7
2018-Jun-22 04:01N 37°48' W 122°18'2 3.2
2018-Jun-22 03:30N 37°48' W 122°20'2 4.8
2018-Jun-22 03:00N 37°46' W 122°22'3 5.2
2018-Jun-22 02:30N 37°48' W 122°21'1 2.1
2018-Jun-22 02:00N 37°48' W 122°19'2 3.3
2018-Jun-22 01:30N 37°48' W 122°17'1 2.3
2018-Jun-22 01:01N 37°48' W 122°19'0 1.0
2018-Jun-22 00:30N 37°48' W 122°19'0 0.0
2018-Jun-22 00:00N 37°48' W 122°19'1 3.0
2018-Jun-21 23:30N 37°49' W 122°19'0 0.1
2018-Jun-21 23:00N 37°49' W 122°19'0 0.0
2018-Jun-21 22:29N 37°49' W 122°19'0 0.0
2018-Jun-21 22:00N 37°49' W 122°19'0 0.0
2018-Jun-21 21:30N 37°49' W 122°19'0 0.0
2018-Jun-21 21:00N 37°49' W 122°19'0 0.0
2018-Jun-21 20:30N 37°49' W 122°19'0 0.0
2018-Jun-21 20:00N 37°49' W 122°19'0 0.0
2018-Jun-21 19:30N 37°49' W 122°19'0 0.0
2018-Jun-21 19:00N 37°49' W 122°19'0 0.0
2018-Jun-21 18:29N 37°49' W 122°19'0 0.0
2018-Jun-21 18:00N 37°49' W 122°19'0 0.0
2018-Jun-21 17:31N 37°49' W 122°19'0 0.0
2018-Jun-21 17:00N 37°49' W 122°19'0 0.0
2018-Jun-21 16:31N 37°49' W 122°19'0 0.0
2018-Jun-21 16:00N 37°49' W 122°19'0 0.0
2018-Jun-21 15:29N 37°49' W 122°19'0 0.0
2018-Jun-21 15:00N 37°49' W 122°19'0 0.0
2018-Jun-21 14:29N 37°49' W 122°19'0 0.0
2018-Jun-21 13:59N 37°49' W 122°19'0 0.0
2018-Jun-21 13:30N 37°49' W 122°19'0 0.0
2018-Jun-21 13:00N 37°49' W 122°19'0 0.0
2018-Jun-21 12:30N 37°49' W 122°19'1 2.2
2018-Jun-21 12:00N 37°49' W 122°20'0 0.4
2018-Jun-21 11:31N 37°49' W 122°20'1 2.1
2018-Jun-21 11:00N 37°48' W 122°21'1 1.1
2018-Jun-21 10:30N 37°48' W 122°21'0 0.0
2018-Jun-21 10:00N 37°48' W 122°21'1 1.6
2018-Jun-21 09:31N 37°49' W 122°20'0 0.2
2018-Jun-21 09:00N 37°49' W 122°20'1 2.0
2018-Jun-21 08:30N 37°49' W 122°19'0 0.1
2018-Jun-21 08:00N 37°49' W 122°19'0 0.0
2018-Jun-21 07:30N 37°49' W 122°19'0 0.0
2018-Jun-21 07:00N 37°49' W 122°19'0 0.0
2018-Jun-21 06:30N 37°49' W 122°19'0 0.0
2018-Jun-21 06:00N 37°49' W 122°19'0 0.0
2018-Jun-21 05:30N 37°49' W 122°19'0 0.0
2018-Jun-21 05:00N 37°49' W 122°19'0 0.0
2018-Jun-21 04:30N 37°49' W 122°19'0 0.0
2018-Jun-21 04:00N 37°49' W 122°19'0 0.0
2018-Jun-21 03:30N 37°49' W 122°19'0 0.0
2018-Jun-21 03:00N 37°49' W 122°19'0 0.0
2018-Jun-21 02:30N 37°49' W 122°19'2 3.3
2018-Jun-21 02:00N 37°48' W 122°20'2 4.0
2018-Jun-21 01:31N 37°48' W 122°17'1 2.7
2018-Jun-21 01:00N 37°48' W 122°19'0 0.3
2018-Jun-21 00:30N 37°48' W 122°19'0 0.0
2018-Jun-20 23:56N 37°48' W 122°19'1 3.1
2018-Jun-20 23:31N 37°48' W 122°21'0 0.7
2018-Jun-20 23:01N 37°49' W 122°20'1 1.1
2018-Jun-20 22:30N 37°49' W 122°20'2 4.2
2018-Jun-20 22:00N 37°48' W 122°22'1 2.7
2018-Jun-20 21:30N 37°48' W 122°21'0 0.0
2018-Jun-20 21:00N 37°48' W 122°21'0 0.0
2018-Jun-20 20:30N 37°48' W 122°21'1 2.1
2018-Jun-20 20:00N 37°47' W 122°21'1 1.5
2018-Jun-20 19:30N 37°47' W 122°21'3 6.5
2018-Jun-20 19:01N 37°49' W 122°23'1 1.5
2018-Jun-20 18:30N 37°49' W 122°23'3 6.5
2018-Jun-20 18:00N 37°49' W 122°19'0 0.0
2018-Jun-20 17:30N 37°49' W 122°19'0 0.0
2018-Jun-20 17:00N 37°49' W 122°19'0 0.0
2018-Jun-20 16:30N 37°49' W 122°19'0 0.1
2018-Jun-20 16:00N 37°49' W 122°19'0 0.0
2018-Jun-20 15:29N 37°49' W 122°19'0 0.0
2018-Jun-20 14:59N 37°49' W 122°19'0 0.0
2018-Jun-20 14:30N 37°49' W 122°19'1 2.1
2018-Jun-20 14:00N 37°49' W 122°20'0 0.0
2018-Jun-20 13:31N 37°49' W 122°20'2 3.4
2018-Jun-20 13:00N 37°48' W 122°22'1 1.1
2018-Jun-20 12:30N 37°48' W 122°21'1 1.0
2018-Jun-20 12:00N 37°48' W 122°21'0 0.0
2018-Jun-20 11:30N 37°48' W 122°21'1 2.3
2018-Jun-20 11:00N 37°48' W 122°19'0 0.2
2018-Jun-20 10:31N 37°48' W 122°19'2 3.5
2018-Jun-20 10:00N 37°48' W 122°21'2 4.9
2018-Jun-20 09:30N 37°49' W 122°19'0 0.0
2018-Jun-20 08:55N 37°49' W 122°19'0 0.0
2018-Jun-20 08:30N 37°49' W 122°19'0 0.0
2018-Jun-20 08:00N 37°49' W 122°19'0 0.0
2018-Jun-20 07:30N 37°49' W 122°19'0 0.0
2018-Jun-20 07:00N 37°49' W 122°19'0 0.0
2018-Jun-20 06:30N 37°49' W 122°19'0 0.0
2018-Jun-20 05:58N 37°49' W 122°19'0 0.0
2018-Jun-20 05:30N 37°49' W 122°19'0 0.0
2018-Jun-20 05:00N 37°49' W 122°19'0 0.0
2018-Jun-20 04:30N 37°49' W 122°19'0 0.0
2018-Jun-20 04:00N 37°49' W 122°19'0 0.0
2018-Jun-20 03:30N 37°49' W 122°19'0 0.0
2018-Jun-20 03:00N 37°49' W 122°19'0 0.0
2018-Jun-20 02:30N 37°49' W 122°19'0 0.0
2018-Jun-20 02:00N 37°49' W 122°19'0 0.0
2018-Jun-20 01:30N 37°49' W 122°19'0 0.0
2018-Jun-20 01:00N 37°49' W 122°19'0 0.0
2018-Jun-20 00:30N 37°49' W 122°19'1 2.0
2018-Jun-20 00:00N 37°49' W 122°20'2 3.2
2018-Jun-19 23:30N 37°48' W 122°21'2 4.3
2018-Jun-19 23:00N 37°49' W 122°19'0 0.6
2018-Jun-19 22:30N 37°49' W 122°19'0 0.0
2018-Jun-19 22:00N 37°49' W 122°19'0 0.0
2018-Jun-19 21:29N 37°49' W 122°19'0 0.0
2018-Jun-19 21:00N 37°49' W 122°19'0 0.0
2018-Jun-19 20:30N 37°49' W 122°19'0 0.0
2018-Jun-19 20:00N 37°49' W 122°19'0 0.0
2018-Jun-19 19:30N 37°49' W 122°19'0 0.0
2018-Jun-19 19:00N 37°49' W 122°19'0 0.0
2018-Jun-19 18:30N 37°49' W 122°19'0 0.0
2018-Jun-19 18:00N 37°49' W 122°19'0 0.0
2018-Jun-19 17:30N 37°49' W 122°19'0 0.0
2018-Jun-19 17:00N 37°49' W 122°19'0 0.0
2018-Jun-19 16:30N 37°49' W 122°19'0 0.0
2018-Jun-19 16:00N 37°49' W 122°19'0 0.0
2018-Jun-19 15:30N 37°49' W 122°19'0 0.0
2018-Jun-19 14:52N 37°49' W 122°19'0 0.0
2018-Jun-19 14:30N 37°49' W 122°19'0 0.0
2018-Jun-19 14:00N 37°49' W 122°19'0 0.0
2018-Jun-19 13:31N 37°49' W 122°19'0 0.0
2018-Jun-19 13:00N 37°49' W 122°19'0 0.0
2018-Jun-19 12:29N 37°49' W 122°19'0 0.0
2018-Jun-19 12:00N 37°49' W 122°19'0 0.0
2018-Jun-19 11:30N 37°49' W 122°19'0 0.0
2018-Jun-19 11:00N 37°49' W 122°19'1 1.8
2018-Jun-19 10:30N 37°49' W 122°20'0 0.4
2018-Jun-19 10:00N 37°49' W 122°20'2 3.4
2018-Jun-19 09:30N 37°48' W 122°18'0 0.2
2018-Jun-19 09:00N 37°48' W 122°18'0 0.0
2018-Jun-19 08:30N 37°48' W 122°18'2 4.3
2018-Jun-19 08:00N 37°49' W 122°20'1 2.8
2018-Jun-19 07:30N 37°49' W 122°19'0 0.0
2018-Jun-19 07:00N 37°49' W 122°19'0 0.0
2018-Jun-19 06:30N 37°49' W 122°19'0 0.0
2018-Jun-19 06:00N 37°49' W 122°19'0 0.0
2018-Jun-19 05:30N 37°49' W 122°19'0 0.0
2018-Jun-19 05:00N 37°49' W 122°19'0 0.0
2018-Jun-19 04:30N 37°49' W 122°19'0 0.0
2018-Jun-19 04:00N 37°49' W 122°19'0 0.0
2018-Jun-19 03:30N 37°49' W 122°19'0 0.0
2018-Jun-19 03:00N 37°49' W 122°19'0 0.0
2018-Jun-19 02:30N 37°49' W 122°19'0 0.0
2018-Jun-19 02:00N 37°49' W 122°19'0 0.0
2018-Jun-19 01:30N 37°49' W 122°19'3 5.9
2018-Jun-19 01:00N 37°47' W 122°21'2 4.8
2018-Jun-19 00:30N 37°45' W 122°23'0 0.2
2018-Jun-19 00:00N 37°45' W 122°23'1 1.3
2018-Jun-18 23:30N 37°46' W 122°22'3 6.4
2018-Jun-18 23:01N 37°48' W 122°19'1 2.5
2018-Jun-18 22:30N 37°49' W 122°20'2 3.1
2018-Jun-18 22:00N 37°49' W 122°19'0 0.0
2018-Jun-18 21:30N 37°49' W 122°19'0 0.1
2018-Jun-18 21:00N 37°49' W 122°19'2 3.1
2018-Jun-18 20:30N 37°48' W 122°19'1 1.6
2018-Jun-18 20:01N 37°48' W 122°18'0 0.2
2018-Jun-18 19:30N 37°48' W 122°18'3 5.2
2018-Jun-18 19:00N 37°48' W 122°21'1 2.1
2018-Jun-18 18:30N 37°49' W 122°20'0 0.0
2018-Jun-18 18:00N 37°49' W 122°20'0 0.0
2018-Jun-18 17:30N 37°49' W 122°20'0 0.0
2018-Jun-18 17:00N 37°49' W 122°20'0 0.0
2018-Jun-18 16:30N 37°49' W 122°20'0 0.0
2018-Jun-18 16:00N 37°49' W 122°20'0 0.0
2018-Jun-18 15:30N 37°49' W 122°20'0 0.0
2018-Jun-18 15:00N 37°49' W 122°20'0 0.0
2018-Jun-18 14:30N 37°49' W 122°20'3 6.3
2018-Jun-18 14:00N 37°46' W 122°23'0 0.8
2018-Jun-18 13:30N 37°46' W 122°23'0 0.0
2018-Jun-18 13:00N 37°46' W 122°23'0 0.0
2018-Jun-18 12:30N 37°46' W 122°23'0 0.0
2018-Jun-18 12:00N 37°46' W 122°23'0 0.3
2018-Jun-18 11:28N 37°46' W 122°23'1 1.9
2018-Jun-18 11:00N 37°46' W 122°22'1 1.9
2018-Jun-18 10:30N 37°47' W 122°21'2 4.2
2018-Jun-18 10:00N 37°49' W 122°20'1 2.0
2018-Jun-18 09:30N 37°49' W 122°19'0 0.0
2018-Jun-18 08:59N 37°49' W 122°19'0 0.0
2018-Jun-18 08:30N 37°49' W 122°19'0 0.0
2018-Jun-18 08:00N 37°49' W 122°19'0 0.0
2018-Jun-18 07:30N 37°49' W 122°19'0 0.0
2018-Jun-18 07:00N 37°49' W 122°19'0 0.0
2018-Jun-18 06:28N 37°49' W 122°19'0 0.0
2018-Jun-18 05:59N 37°49' W 122°19'0 0.0
2018-Jun-18 05:30N 37°49' W 122°19'0 0.0
2018-Jun-18 05:00N 37°49' W 122°19'0 0.0
2018-Jun-18 04:30N 37°49' W 122°19'0 0.0
2018-Jun-18 04:00N 37°49' W 122°19'0 0.0
2018-Jun-18 03:30N 37°49' W 122°19'2 3.3
2018-Jun-18 03:00N 37°48' W 122°19'1 2.6
2018-Jun-18 02:31N 37°48' W 122°17'1 3.0
2018-Jun-18 02:00N 37°48' W 122°19'0 0.2
2018-Jun-18 01:30N 37°48' W 122°19'0 0.1
2018-Jun-18 01:01N 37°48' W 122°19'1 1.3
2018-Jun-18 00:30N 37°48' W 122°20'2 3.4
2018-Jun-18 00:00N 37°49' W 122°19'0 0.0
2018-Jun-17 23:30N 37°49' W 122°19'0 0.0
2018-Jun-17 23:01N 37°49' W 122°19'0 0.0
2018-Jun-17 22:30N 37°49' W 122°19'0 0.0
2018-Jun-17 21:59N 37°49' W 122°19'0 0.0
2018-Jun-17 21:30N 37°49' W 122°19'0 0.0
2018-Jun-17 21:00N 37°49' W 122°19'0 0.0
2018-Jun-17 20:30N 37°49' W 122°19'0 0.0
2018-Jun-17 20:00N 37°49' W 122°19'0 0.0
2018-Jun-17 19:31N 37°49' W 122°19'0 0.0
2018-Jun-17 18:59N 37°49' W 122°19'0 0.0
2018-Jun-17 18:30N 37°49' W 122°19'0 0.0
2018-Jun-17 18:00N 37°49' W 122°19'0 0.0
2018-Jun-17 17:30N 37°49' W 122°19'0 0.0
2018-Jun-17 16:50N 37°49' W 122°19'0 0.0
2018-Jun-17 16:30N 37°49' W 122°19'2 3.2
2018-Jun-17 16:00N 37°48' W 122°20'1 1.6
2018-Jun-17 15:30N 37°49' W 122°19'2 3.2
2018-Jun-17 15:00N 37°48' W 122°21'1 1.3
2018-Jun-17 14:30N 37°48' W 122°21'0 0.0
2018-Jun-17 14:00N 37°48' W 122°21'0 0.0
2018-Jun-17 13:30N 37°48' W 122°21'0 0.0
2018-Jun-17 13:00N 37°48' W 122°21'1 1.4
2018-Jun-17 12:30N 37°49' W 122°20'0 0.2
2018-Jun-17 12:00N 37°49' W 122°20'0 0.1
2018-Jun-17 11:30N 37°49' W 122°20'2 3.6
2018-Jun-17 11:00N 37°48' W 122°18'0 0.0
2018-Jun-17 10:31N 37°48' W 122°18'1 2.0
2018-Jun-17 10:00N 37°48' W 122°19'1 2.0
2018-Jun-17 09:30N 37°49' W 122°20'1 2.2
2018-Jun-17 09:00N 37°49' W 122°19'0 0.0
2018-Jun-17 08:30N 37°49' W 122°19'0 0.0
2018-Jun-17 08:00N 37°49' W 122°19'0 0.0
2018-Jun-17 07:30N 37°49' W 122°19'0 0.0
2018-Jun-17 07:01N 37°49' W 122°19'0 0.0
2018-Jun-17 06:30N 37°49' W 122°19'0 0.0
2018-Jun-17 06:00N 37°49' W 122°19'0 0.0
2018-Jun-17 05:30N 37°49' W 122°19'0 0.0
2018-Jun-17 05:00N 37°49' W 122°19'0 0.0
2018-Jun-17 04:23N 37°49' W 122°19'0 0.0
2018-Jun-17 04:00N 37°49' W 122°19'0 0.0
2018-Jun-17 03:31N 37°49' W 122°19'0 0.0
2018-Jun-17 03:00N 37°49' W 122°19'2 3.6
2018-Jun-17 02:30N 37°48' W 122°21'1 2.8
2018-Jun-17 02:00N 37°48' W 122°19'0 0.5
2018-Jun-17 01:30N 37°48' W 122°19'0 0.0
2018-Jun-17 01:00N 37°48' W 122°19'0 0.0
2018-Jun-17 00:30N 37°48' W 122°19'0 0.0
2018-Jun-16 23:59N 37°48' W 122°19'0 0.0
2018-Jun-16 23:30N 37°48' W 122°19'0 0.9
2018-Jun-16 23:00N 37°48' W 122°19'0 0.1
2018-Jun-16 22:30N 37°48' W 122°19'2 3.8
2018-Jun-16 22:00N 37°48' W 122°22'2 3.6
2018-Jun-16 21:31N 37°48' W 122°19'0 0.1
2018-Jun-16 21:00N 37°48' W 122°19'1 2.0
2018-Jun-16 20:31N 37°48' W 122°20'2 3.6
2018-Jun-16 20:00N 37°49' W 122°19'0 0.0
2018-Jun-16 19:30N 37°49' W 122°19'0 0.0
2018-Jun-16 19:00N 37°49' W 122°19'0 0.0
2018-Jun-16 18:29N 37°49' W 122°19'0 0.0
2018-Jun-16 18:00N 37°49' W 122°19'0 0.0
2018-Jun-16 17:30N 37°49' W 122°19'0 0.0
2018-Jun-16 17:00N 37°49' W 122°19'0 0.0
2018-Jun-16 16:30N 37°49' W 122°19'0 0.0
2018-Jun-16 16:00N 37°49' W 122°19'0 0.0
2018-Jun-16 15:30N 37°49' W 122°19'1 2.2
2018-Jun-16 15:01N 37°49' W 122°20'0 0.1
2018-Jun-16 14:31N 37°49' W 122°20'2 3.8
2018-Jun-16 14:00N 37°48' W 122°22'0 0.5
2018-Jun-16 13:30N 37°48' W 122°22'1 2.6
2018-Jun-16 13:00N 37°48' W 122°21'0 0.0
2018-Jun-16 12:30N 37°48' W 122°21'1 2.3
2018-Jun-16 11:59N 37°48' W 122°19'1 1.4
2018-Jun-16 11:30N 37°48' W 122°18'0 0.1
2018-Jun-16 11:00N 37°48' W 122°18'3 6.2
2018-Jun-16 10:30N 37°48' W 122°22'1 2.8
2018-Jun-16 10:00N 37°49' W 122°20'1 1.5
2018-Jun-16 09:30N 37°49' W 122°20'0 0.3
2018-Jun-16 09:00N 37°49' W 122°20'1 1.8
2018-Jun-16 08:30N 37°49' W 122°19'0 0.2
2018-Jun-16 08:00N 37°49' W 122°19'0 0.0
2018-Jun-16 07:30N 37°49' W 122°19'0 0.0
2018-Jun-16 07:00N 37°49' W 122°19'0 0.0
2018-Jun-16 06:30N 37°49' W 122°19'0 0.0
2018-Jun-16 06:00N 37°49' W 122°19'0 0.0
2018-Jun-16 05:30N 37°49' W 122°19'0 0.0
2018-Jun-16 05:00N 37°49' W 122°19'0 0.0
2018-Jun-16 04:30N 37°49' W 122°19'0 0.0
2018-Jun-16 04:00N 37°49' W 122°19'0 0.0
2018-Jun-16 03:30N 37°49' W 122°19'0 0.0
2018-Jun-16 03:01N 37°49' W 122°19'3 5.3
2018-Jun-16 02:30N 37°48' W 122°22'3 5.2
2018-Jun-16 02:01N 37°48' W 122°18'0 0.2
2018-Jun-16 01:31N 37°48' W 122°18'0 0.1
2018-Jun-16 01:00N 37°48' W 122°18'0 0.0
2018-Jun-16 00:30N 37°48' W 122°18'0 0.0
2018-Jun-16 00:00N 37°48' W 122°18'0 0.3
2018-Jun-15 23:30N 37°48' W 122°19'1 2.2
2018-Jun-15 23:00N 37°48' W 122°17'1 2.1
2018-Jun-15 22:30N 37°48' W 122°19'3 5.3
2018-Jun-15 22:00N 37°48' W 122°22'1 2.1
2018-Jun-15 21:30N 37°48' W 122°21'0 0.0
2018-Jun-15 21:01N 37°48' W 122°21'1 1.6
2018-Jun-15 20:30N 37°48' W 122°20'1 2.9
2018-Jun-15 20:00N 37°48' W 122°18'0 0.1
2018-Jun-15 19:30N 37°48' W 122°18'2 4.5
2018-Jun-15 19:00N 37°48' W 122°21'2 3.7
2018-Jun-15 18:30N 37°49' W 122°19'0 0.0
2018-Jun-15 18:00N 37°49' W 122°19'0 0.0
2018-Jun-15 17:30N 37°49' W 122°19'0 0.0
2018-Jun-15 16:59N 37°49' W 122°19'0 0.0
2018-Jun-15 16:31N 37°49' W 122°19'0 0.0
2018-Jun-15 16:00N 37°49' W 122°19'0 0.0
2018-Jun-15 15:28N 37°49' W 122°19'0 0.0
2018-Jun-15 15:00N 37°49' W 122°19'0 0.0
2018-Jun-15 14:30N 37°49' W 122°19'2 3.6
2018-Jun-15 14:00N 37°48' W 122°21'1 2.4
2018-Jun-15 13:30N 37°48' W 122°19'1 1.8
2018-Jun-15 13:00N 37°48' W 122°20'2 3.2
2018-Jun-15 12:30N 37°48' W 122°22'3 5.9
2018-Jun-15 12:00N 37°49' W 122°19'0 0.1
2018-Jun-15 11:30N 37°49' W 122°19'0 0.0
2018-Jun-15 11:00N 37°49' W 122°19'0 0.0
2018-Jun-15 10:30N 37°49' W 122°19'0 0.0
2018-Jun-15 10:00N 37°49' W 122°19'0 0.0
2018-Jun-15 09:30N 37°49' W 122°19'0 0.0
2018-Jun-15 09:00N 37°49' W 122°19'0 0.0
2018-Jun-15 08:30N 37°49' W 122°19'0 0.0
2018-Jun-15 08:00N 37°49' W 122°19'0 0.0
2018-Jun-15 07:30N 37°49' W 122°19'0 0.0
2018-Jun-15 07:00N 37°49' W 122°19'0 0.0
2018-Jun-15 06:29N 37°49' W 122°19'0 0.0
2018-Jun-15 06:00N 37°49' W 122°19'0 0.0
2018-Jun-15 05:29N 37°49' W 122°19'0 0.0
2018-Jun-15 05:00N 37°49' W 122°19'0 0.0
2018-Jun-15 04:30N 37°49' W 122°19'0 0.0
2018-Jun-15 04:00N 37°49' W 122°19'0 0.0
2018-Jun-15 03:28N 37°49' W 122°19'0 0.0
2018-Jun-15 03:00N 37°49' W 122°19'0 0.0
2018-Jun-15 02:29N 37°49' W 122°19'0 0.0
2018-Jun-15 02:01N 37°49' W 122°19'0 0.0
2018-Jun-15 01:31N 37°49' W 122°19'0 0.0
2018-Jun-15 01:00N 37°49' W 122°19'0 0.0
2018-Jun-15 00:30N 37°49' W 122°19'0 0.0
2018-Jun-15 00:00N 37°49' W 122°19'0 0.0
2018-Jun-14 23:30N 37°49' W 122°19'0 0.0
2018-Jun-14 23:00N 37°49' W 122°19'0 0.0
2018-Jun-14 22:30N 37°49' W 122°19'0 0.0
2018-Jun-14 22:00N 37°49' W 122°19'0 0.0
2018-Jun-14 21:30N 37°49' W 122°19'0 0.0
2018-Jun-14 21:00N 37°49' W 122°19'0 0.0
2018-Jun-14 20:29N 37°49' W 122°19'  

Dump ship's entire track history